KISP/ISP METAR and TAF weather

Enter ICAO airport designator
Station Type Date Time Source
KISP METAR 2021/01/22 06:56 UTC NOAA

KISP 220656Z AUTO 22007KT 10SM OVC080 03/M01 A2960 RMK AO2 SLP022 T00281006


Station Type Date Time Source
KISP Decoded METAR 2021/01/22 06:56 UTC NOAA

ISLIP LONG ISLAND MAC ART, NY, United States (KISP) 40-48N 073-06W 43M
Jan 22, 2021 - 01:56 AM EST / 2021.01.22 0656 UTC
Wind: from the SW (220 degrees) at 8 MPH (7 KT):0
Visibility: 10 mile(s):0
Sky conditions: overcast
Temperature: 37.0 F (2.8 C)
Dew Point: 30.9 F (-0.6 C)
Relative Humidity: 78%
Pressure (altimeter): 29.6 in. Hg (1002 hPa)
ob: KISP 220656Z AUTO 22007KT 10SM OVC080 03/M01 A2960 RMK AO2 SLP022 T00281006
cycle: 7

Station Type Date Time Source
KISP TAF 2021/01/22 06:36 UTC NOAA

TAF KISP 220532Z 2206/2306 VRB04KT P6SM BKN070
FM221300 27011KT P6SM SCT040
FM221600 28016G23KT P6SM BKN040
FM222300 29013G19KT P6SM SCT040
FM230400 31012G17KT P6SM SKC

Example: see airport list